sensor_id;sensor_type;location;lat;lon;timestamp;P1;durP1;ratioP1;P2;durP2;ratioP2
74170;SDS011;62526;50.948;6.590;2022-10-16T00:01:05;7.37;;;2.10;;
74170;SDS011;62526;50.948;6.590;2022-10-16T00:03:25;1.60;;;1.50;;
74170;SDS011;62526;50.948;6.590;2022-10-16T00:05:52;4.57;;;1.42;;
74170;SDS011;62526;50.948;6.590;2022-10-16T00:08:18;3.72;;;1.60;;
74170;SDS011;62526;50.948;6.590;2022-10-16T00:10:45;4.28;;;1.98;;
74170;SDS011;62526;50.948;6.590;2022-10-16T00:13:12;4.60;;;1.95;;
74170;SDS011;62526;50.948;6.590;2022-10-16T00:15:38;3.60;;;1.75;;
74170;SDS011;62526;50.948;6.590;2022-10-16T00:18:06;1.87;;;1.65;;
74170;SDS011;62526;50.948;6.590;2022-10-16T00:20:33;3.95;;;1.98;;
74170;SDS011;62526;50.948;6.590;2022-10-16T00:22:59;7.20;;;1.90;;
74170;SDS011;62526;50.948;6.590;2022-10-16T00:25:26;2.55;;;1.73;;
74170;SDS011;62526;50.948;6.590;2022-10-16T00:27:53;3.42;;;1.83;;
74170;SDS011;62526;50.948;6.590;2022-10-16T00:30:20;1.85;;;1.50;;
74170;SDS011;62526;50.948;6.590;2022-10-16T00:32:47;5.93;;;1.70;;
74170;SDS011;62526;50.948;6.590;2022-10-16T00:35:13;6.43;;;2.25;;
74170;SDS011;62526;50.948;6.590;2022-10-16T00:37:40;4.50;;;1.60;;
74170;SDS011;62526;50.948;6.590;2022-10-16T00:40:07;2.53;;;1.80;;
74170;SDS011;62526;50.948;6.590;2022-10-16T00:42:34;6.47;;;1.85;;
74170;SDS011;62526;50.948;6.590;2022-10-16T00:45:01;2.95;;;1.70;;
74170;SDS011;62526;50.948;6.590;2022-10-16T00:47:29;2.12;;;1.92;;
74170;SDS011;62526;50.948;6.590;2022-10-16T00:49:57;2.90;;;2.12;;
74170;SDS011;62526;50.948;6.590;2022-10-16T00:52:22;2.35;;;1.80;;
74170;SDS011;62526;50.948;6.590;2022-10-16T00:54:49;1.80;;;1.70;;
74170;SDS011;62526;50.948;6.590;2022-10-16T00:57:15;4.50;;;2.22;;
74170;SDS011;62526;50.948;6.590;2022-10-16T00:59:42;2.75;;;2.15;;
74170;SDS011;62526;50.948;6.590;2022-10-16T01:02:10;6.82;;;2.08;;
74170;SDS011;62526;50.948;6.590;2022-10-16T01:04:37;2.05;;;1.83;;
74170;SDS011;62526;50.948;6.590;2022-10-16T01:07:09;3.08;;;2.00;;
74170;SDS011;62526;50.948;6.590;2022-10-16T01:09:36;2.08;;;1.85;;
74170;SDS011;62526;50.948;6.590;2022-10-16T01:12:30;2.05;;;1.83;;
74170;SDS011;62526;50.948;6.590;2022-10-16T01:15:04;2.67;;;2.05;;
74170;SDS011;62526;50.948;6.590;2022-10-16T01:17:35;3.17;;;1.80;;
74170;SDS011;62526;50.948;6.590;2022-10-16T01:22:37;2.75;;;2.20;;
74170;SDS011;62526;50.948;6.590;2022-10-16T01:25:05;2.47;;;1.90;;
74170;SDS011;62526;50.948;6.590;2022-10-16T01:27:31;5.78;;;2.00;;
74170;SDS011;62526;50.948;6.590;2022-10-16T01:30:02;2.55;;;1.98;;
74170;SDS011;62526;50.948;6.590;2022-10-16T01:33:02;3.05;;;1.83;;
74170;SDS011;62526;50.948;6.590;2022-10-16T01:35:16;3.22;;;1.85;;
74170;SDS011;62526;50.948;6.590;2022-10-16T01:37:43;4.37;;;1.90;;
74170;SDS011;62526;50.948;6.590;2022-10-16T01:40:14;6.20;;;2.00;;
74170;SDS011;62526;50.948;6.590;2022-10-16T01:42:42;2.12;;;1.92;;
74170;SDS011;62526;50.948;6.590;2022-10-16T01:45:08;1.95;;;1.75;;
74170;SDS011;62526;50.948;6.590;2022-10-16T01:47:35;2.78;;;1.98;;
74170;SDS011;62526;50.948;6.590;2022-10-16T01:50:02;2.37;;;1.95;;
74170;SDS011;62526;50.948;6.590;2022-10-16T01:52:28;2.33;;;1.95;;
74170;SDS011;62526;50.948;6.590;2022-10-16T01:54:55;5.95;;;2.00;;
74170;SDS011;62526;50.948;6.590;2022-10-16T01:57:21;2.78;;;2.40;;
74170;SDS011;62526;50.948;6.590;2022-10-16T01:59:49;2.87;;;2.20;;
74170;SDS011;62526;50.948;6.590;2022-10-16T02:02:15;4.12;;;1.90;;
74170;SDS011;62526;50.948;6.590;2022-10-16T02:04:43;5.45;;;1.85;;
74170;SDS011;62526;50.948;6.590;2022-10-16T02:07:09;3.58;;;2.10;;
74170;SDS011;62526;50.948;6.590;2022-10-16T02:09:35;2.75;;;1.92;;
74170;SDS011;62526;50.948;6.590;2022-10-16T02:12:05;2.50;;;1.70;;
74170;SDS011;62526;50.948;6.590;2022-10-16T02:14:29;2.20;;;1.80;;
74170;SDS011;62526;50.948;6.590;2022-10-16T02:16:56;2.12;;;1.92;;
74170;SDS011;62526;50.948;6.590;2022-10-16T02:19:23;4.03;;;2.20;;
74170;SDS011;62526;50.948;6.590;2022-10-16T02:21:56;4.10;;;1.80;;
74170;SDS011;62526;50.948;6.590;2022-10-16T02:24:32;2.15;;;1.75;;
74170;SDS011;62526;50.948;6.590;2022-10-16T02:28:08;2.20;;;1.70;;
74170;SDS011;62526;50.948;6.590;2022-10-16T02:29:47;4.20;;;1.90;;
74170;SDS011;62526;50.948;6.590;2022-10-16T02:32:12;4.05;;;1.75;;
74170;SDS011;62526;50.948;6.590;2022-10-16T02:34:39;9.10;;;3.87;;
74170;SDS011;62526;50.948;6.590;2022-10-16T02:37:06;6.37;;;2.55;;
74170;SDS011;62526;50.948;6.590;2022-10-16T02:39:33;3.53;;;2.10;;
74170;SDS011;62526;50.948;6.590;2022-10-16T02:42:00;3.33;;;2.78;;
74170;SDS011;62526;50.948;6.590;2022-10-16T02:44:26;3.95;;;2.20;;
74170;SDS011;62526;50.948;6.590;2022-10-16T02:46:54;1.80;;;1.70;;
74170;SDS011;62526;50.948;6.590;2022-10-16T02:49:20;1.92;;;1.80;;
74170;SDS011;62526;50.948;6.590;2022-10-16T02:51:47;2.58;;;2.12;;
74170;SDS011;62526;50.948;6.590;2022-10-16T02:54:14;3.35;;;1.70;;
74170;SDS011;62526;50.948;6.590;2022-10-16T02:56:40;2.42;;;1.80;;
74170;SDS011;62526;50.948;6.590;2022-10-16T02:59:07;2.60;;;2.00;;
74170;SDS011;62526;50.948;6.590;2022-10-16T03:01:34;6.20;;;1.70;;
74170;SDS011;62526;50.948;6.590;2022-10-16T03:04:01;3.35;;;1.90;;
74170;SDS011;62526;50.948;6.590;2022-10-16T03:06:28;3.80;;;1.70;;
74170;SDS011;62526;50.948;6.590;2022-10-16T03:08:55;3.75;;;1.75;;
74170;SDS011;62526;50.948;6.590;2022-10-16T03:11:22;3.42;;;1.70;;
74170;SDS011;62526;50.948;6.590;2022-10-16T03:13:51;2.50;;;1.60;;
74170;SDS011;62526;50.948;6.590;2022-10-16T03:16:18;2.10;;;1.80;;
74170;SDS011;62526;50.948;6.590;2022-10-16T03:18:48;3.83;;;1.60;;
74170;SDS011;62526;50.948;6.590;2022-10-16T03:21:14;2.65;;;1.75;;
74170;SDS011;62526;50.948;6.590;2022-10-16T03:23:40;2.12;;;1.48;;
74170;SDS011;62526;50.948;6.590;2022-10-16T03:26:07;1.77;;;1.67;;
74170;SDS011;62526;50.948;6.590;2022-10-16T03:28:34;3.05;;;1.55;;
74170;SDS011;62526;50.948;6.590;2022-10-16T03:31:01;2.95;;;1.60;;
74170;SDS011;62526;50.948;6.590;2022-10-16T03:33:28;1.73;;;1.62;;
74170;SDS011;62526;50.948;6.590;2022-10-16T03:35:55;2.33;;;1.50;;
74170;SDS011;62526;50.948;6.590;2022-10-16T03:38:21;1.50;;;1.40;;
74170;SDS011;62526;50.948;6.590;2022-10-16T03:40:49;2.03;;;1.58;;
74170;SDS011;62526;50.948;6.590;2022-10-16T03:43:15;1.90;;;1.55;;
74170;SDS011;62526;50.948;6.590;2022-10-16T03:45:43;3.53;;;1.70;;
74170;SDS011;62526;50.948;6.590;2022-10-16T03:48:10;1.95;;;1.73;;
74170;SDS011;62526;50.948;6.590;2022-10-16T03:50:37;1.60;;;1.50;;
74170;SDS011;62526;50.948;6.590;2022-10-16T03:53:03;2.45;;;1.40;;
74170;SDS011;62526;50.948;6.590;2022-10-16T03:55:30;2.65;;;1.42;;
74170;SDS011;62526;50.948;6.590;2022-10-16T03:57:57;2.28;;;1.58;;
74170;SDS011;62526;50.948;6.590;2022-10-16T04:00:24;1.65;;;1.40;;
74170;SDS011;62526;50.948;6.590;2022-10-16T04:02:50;2.42;;;1.35;;
74170;SDS011;62526;50.948;6.590;2022-10-16T04:05:17;1.50;;;1.40;;
74170;SDS011;62526;50.948;6.590;2022-10-16T04:07:43;1.60;;;1.50;;
74170;SDS011;62526;50.948;6.590;2022-10-16T04:10:10;1.80;;;1.42;;
74170;SDS011;62526;50.948;6.590;2022-10-16T04:12:37;3.87;;;1.65;;
74170;SDS011;62526;50.948;6.590;2022-10-16T04:15:03;3.55;;;1.50;;
74170;SDS011;62526;50.948;6.590;2022-10-16T04:17:30;2.62;;;1.45;;
74170;SDS011;62526;50.948;6.590;2022-10-16T04:19:57;4.40;;;1.60;;
74170;SDS011;62526;50.948;6.590;2022-10-16T04:22:23;1.90;;;1.70;;
74170;SDS011;62526;50.948;6.590;2022-10-16T04:24:50;4.75;;;1.55;;
74170;SDS011;62526;50.948;6.590;2022-10-16T04:27:17;1.58;;;1.48;;
74170;SDS011;62526;50.948;6.590;2022-10-16T04:29:43;1.60;;;1.50;;
74170;SDS011;62526;50.948;6.590;2022-10-16T04:32:10;5.40;;;1.70;;
74170;SDS011;62526;50.948;6.590;2022-10-16T04:34:38;1.60;;;1.50;;
74170;SDS011;62526;50.948;6.590;2022-10-16T04:37:03;2.37;;;1.55;;
74170;SDS011;62526;50.948;6.590;2022-10-16T04:39:30;1.60;;;1.50;;
74170;SDS011;62526;50.948;6.590;2022-10-16T04:41:57;2.72;;;1.75;;
74170;SDS011;62526;50.948;6.590;2022-10-16T04:44:23;1.50;;;1.40;;
74170;SDS011;62526;50.948;6.590;2022-10-16T04:46:50;2.08;;;1.40;;
74170;SDS011;62526;50.948;6.590;2022-10-16T04:49:17;7.25;;;1.62;;
74170;SDS011;62526;50.948;6.590;2022-10-16T04:51:43;1.37;;;1.27;;
74170;SDS011;62526;50.948;6.590;2022-10-16T04:54:10;1.50;;;1.40;;
74170;SDS011;62526;50.948;6.590;2022-10-16T04:56:37;4.00;;;1.60;;
74170;SDS011;62526;50.948;6.590;2022-10-16T04:59:03;3.78;;;1.58;;
74170;SDS011;62526;50.948;6.590;2022-10-16T05:01:30;2.17;;;1.60;;
74170;SDS011;62526;50.948;6.590;2022-10-16T05:03:57;4.12;;;1.42;;
74170;SDS011;62526;50.948;6.590;2022-10-16T05:06:23;1.60;;;1.50;;
74170;SDS011;62526;50.948;6.590;2022-10-16T05:08:50;1.95;;;1.65;;
74170;SDS011;62526;50.948;6.590;2022-10-16T05:11:17;1.40;;;1.30;;
74170;SDS011;62526;50.948;6.590;2022-10-16T05:13:43;1.20;;;1.20;;
74170;SDS011;62526;50.948;6.590;2022-10-16T05:16:10;1.60;;;1.50;;
74170;SDS011;62526;50.948;6.590;2022-10-16T05:18:37;4.35;;;1.58;;
74170;SDS011;62526;50.948;6.590;2022-10-16T05:21:03;1.92;;;1.67;;
74170;SDS011;62526;50.948;6.590;2022-10-16T05:23:30;1.50;;;1.40;;
74170;SDS011;62526;50.948;6.590;2022-10-16T05:25:57;5.78;;;1.98;;
74170;SDS011;62526;50.948;6.590;2022-10-16T05:28:26;1.77;;;1.67;;
74170;SDS011;62526;50.948;6.590;2022-10-16T05:30:52;2.25;;;2.00;;
74170;SDS011;62526;50.948;6.590;2022-10-16T05:33:20;2.00;;;1.80;;
74170;SDS011;62526;50.948;6.590;2022-10-16T05:35:46;3.83;;;1.90;;
74170;SDS011;62526;50.948;6.590;2022-10-16T05:38:13;2.97;;;1.90;;
74170;SDS011;62526;50.948;6.590;2022-10-16T05:40:39;1.95;;;1.85;;
74170;SDS011;62526;50.948;6.590;2022-10-16T05:43:07;4.62;;;1.77;;
74170;SDS011;62526;50.948;6.590;2022-10-16T05:45:33;2.75;;;1.65;;
74170;SDS011;62526;50.948;6.590;2022-10-16T05:48:00;2.90;;;1.80;;
74170;SDS011;62526;50.948;6.590;2022-10-16T05:50:27;1.65;;;1.55;;
74170;SDS011;62526;50.948;6.590;2022-10-16T05:52:53;3.78;;;1.85;;
74170;SDS011;62526;50.948;6.590;2022-10-16T05:55:20;3.17;;;1.95;;
74170;SDS011;62526;50.948;6.590;2022-10-16T05:57:47;1.70;;;1.60;;
74170;SDS011;62526;50.948;6.590;2022-10-16T06:00:13;4.28;;;1.92;;
74170;SDS011;62526;50.948;6.590;2022-10-16T06:02:40;2.35;;;1.83;;
74170;SDS011;62526;50.948;6.590;2022-10-16T06:05:07;2.58;;;1.87;;
74170;SDS011;62526;50.948;6.590;2022-10-16T06:07:34;1.73;;;1.62;;
74170;SDS011;62526;50.948;6.590;2022-10-16T06:10:00;2.17;;;1.80;;
74170;SDS011;62526;50.948;6.590;2022-10-16T06:12:27;2.47;;;1.70;;
74170;SDS011;62526;50.948;6.590;2022-10-16T06:14:53;3.83;;;1.60;;
74170;SDS011;62526;50.948;6.590;2022-10-16T06:17:20;4.78;;;1.65;;
74170;SDS011;62526;50.948;6.590;2022-10-16T06:19:47;2.53;;;1.58;;
74170;SDS011;62526;50.948;6.590;2022-10-16T06:22:13;3.08;;;1.80;;
74170;SDS011;62526;50.948;6.590;2022-10-16T06:24:40;3.33;;;1.80;;
74170;SDS011;62526;50.948;6.590;2022-10-16T06:27:06;2.00;;;1.70;;
74170;SDS011;62526;50.948;6.590;2022-10-16T06:29:33;1.80;;;1.70;;
74170;SDS011;62526;50.948;6.590;2022-10-16T06:32:00;4.07;;;2.37;;
74170;SDS011;62526;50.948;6.590;2022-10-16T06:34:27;2.62;;;1.90;;
74170;SDS011;62526;50.948;6.590;2022-10-16T06:36:55;2.65;;;1.98;;
74170;SDS011;62526;50.948;6.590;2022-10-16T06:39:22;2.08;;;1.80;;
74170;SDS011;62526;50.948;6.590;2022-10-16T06:41:49;6.25;;;2.40;;
74170;SDS011;62526;50.948;6.590;2022-10-16T06:44:15;2.92;;;2.15;;
74170;SDS011;62526;50.948;6.590;2022-10-16T06:46:42;2.20;;;2.00;;
74170;SDS011;62526;50.948;6.590;2022-10-16T06:49:08;2.40;;;2.20;;
74170;SDS011;62526;50.948;6.590;2022-10-16T06:51:35;3.08;;;2.10;;
74170;SDS011;62526;50.948;6.590;2022-10-16T06:54:02;9.00;;;3.12;;
74170;SDS011;62526;50.948;6.590;2022-10-16T06:56:29;3.12;;;2.00;;
74170;SDS011;62526;50.948;6.590;2022-10-16T06:58:55;3.30;;;2.40;;
74170;SDS011;62526;50.948;6.590;2022-10-16T07:01:22;2.65;;;2.00;;
74170;SDS011;62526;50.948;6.590;2022-10-16T07:03:49;2.72;;;1.83;;
74170;SDS011;62526;50.948;6.590;2022-10-16T07:06:17;4.15;;;2.03;;
74170;SDS011;62526;50.948;6.590;2022-10-16T07:08:43;2.37;;;2.08;;
74170;SDS011;62526;50.948;6.590;2022-10-16T07:11:09;3.50;;;2.10;;
74170;SDS011;62526;50.948;6.590;2022-10-16T07:13:35;3.03;;;2.30;;
74170;SDS011;62526;50.948;6.590;2022-10-16T07:16:05;4.78;;;2.12;;
74170;SDS011;62526;50.948;6.590;2022-10-16T07:18:31;3.50;;;1.98;;
74170;SDS011;62526;50.948;6.590;2022-10-16T07:21:03;3.92;;;2.05;;
74170;SDS011;62526;50.948;6.590;2022-10-16T07:23:29;4.25;;;2.00;;
74170;SDS011;62526;50.948;6.590;2022-10-16T07:25:55;2.87;;;2.20;;
74170;SDS011;62526;50.948;6.590;2022-10-16T07:28:22;11.25;;;2.20;;
74170;SDS011;62526;50.948;6.590;2022-10-16T07:30:49;3.40;;;2.03;;
74170;SDS011;62526;50.948;6.590;2022-10-16T07:33:16;2.10;;;1.95;;
74170;SDS011;62526;50.948;6.590;2022-10-16T07:35:50;5.50;;;2.10;;
74170;SDS011;62526;50.948;6.590;2022-10-16T07:38:15;5.95;;;2.03;;
74170;SDS011;62526;50.948;6.590;2022-10-16T07:40:42;3.70;;;2.30;;
74170;SDS011;62526;50.948;6.590;2022-10-16T07:43:09;3.67;;;1.90;;
74170;SDS011;62526;50.948;6.590;2022-10-16T07:45:35;3.60;;;1.90;;
74170;SDS011;62526;50.948;6.590;2022-10-16T07:48:02;1.67;;;1.37;;
74170;SDS011;62526;50.948;6.590;2022-10-16T07:50:29;4.00;;;1.92;;
74170;SDS011;62526;50.948;6.590;2022-10-16T07:52:55;1.70;;;1.60;;
74170;SDS011;62526;50.948;6.590;2022-10-16T07:55:22;3.30;;;1.85;;
74170;SDS011;62526;50.948;6.590;2022-10-16T07:57:49;5.80;;;1.98;;
74170;SDS011;62526;50.948;6.590;2022-10-16T08:00:15;4.03;;;1.77;;
74170;SDS011;62526;50.948;6.590;2022-10-16T08:02:42;4.22;;;1.45;;
74170;SDS011;62526;50.948;6.590;2022-10-16T08:05:09;2.87;;;1.62;;
74170;SDS011;62526;50.948;6.590;2022-10-16T08:07:35;4.62;;;1.77;;
74170;SDS011;62526;50.948;6.590;2022-10-16T08:10:02;1.77;;;1.50;;
74170;SDS011;62526;50.948;6.590;2022-10-16T08:12:29;4.45;;;1.50;;
74170;SDS011;62526;50.948;6.590;2022-10-16T08:14:56;1.83;;;1.35;;
74170;SDS011;62526;50.948;6.590;2022-10-16T08:17:22;1.30;;;1.20;;
74170;SDS011;62526;50.948;6.590;2022-10-16T08:19:49;2.60;;;1.48;;
74170;SDS011;62526;50.948;6.590;2022-10-16T08:22:16;4.20;;;1.67;;
74170;SDS011;62526;50.948;6.590;2022-10-16T08:24:43;3.80;;;1.40;;
74170;SDS011;62526;50.948;6.590;2022-10-16T08:27:10;2.53;;;1.60;;
74170;SDS011;62526;50.948;6.590;2022-10-16T08:29:36;3.55;;;1.33;;
74170;SDS011;62526;50.948;6.590;2022-10-16T08:32:03;5.87;;;1.60;;
74170;SDS011;62526;50.948;6.590;2022-10-16T08:34:30;9.02;;;1.60;;
74170;SDS011;62526;50.948;6.590;2022-10-16T08:36:57;2.80;;;1.50;;
74170;SDS011;62526;50.948;6.590;2022-10-16T08:39:23;3.80;;;1.62;;
74170;SDS011;62526;50.948;6.590;2022-10-16T08:41:59;3.90;;;1.35;;
74170;SDS011;62526;50.948;6.590;2022-10-16T08:44:29;3.03;;;1.20;;
74170;SDS011;62526;50.948;6.590;2022-10-16T08:49:55;4.72;;;1.40;;
74170;SDS011;62526;50.948;6.590;2022-10-16T08:52:10;2.72;;;1.27;;
74170;SDS011;62526;50.948;6.590;2022-10-16T08:54:39;2.45;;;1.27;;
74170;SDS011;62526;50.948;6.590;2022-10-16T08:57:09;2.60;;;1.37;;
74170;SDS011;62526;50.948;6.590;2022-10-16T08:59:33;1.48;;;1.17;;
74170;SDS011;62526;50.948;6.590;2022-10-16T09:02:00;3.15;;;1.40;;
74170;SDS011;62526;50.948;6.590;2022-10-16T09:04:40;4.00;;;1.30;;
74170;SDS011;62526;50.948;6.590;2022-10-16T09:07:27;5.97;;;1.05;;
74170;SDS011;62526;50.948;6.590;2022-10-16T09:10:04;3.00;;;1.37;;
74170;SDS011;62526;50.948;6.590;2022-10-16T09:15:24;3.03;;;1.30;;
74170;SDS011;62526;50.948;6.590;2022-10-16T09:20:42;2.37;;;1.30;;
74170;SDS011;62526;50.948;6.590;2022-10-16T09:23:27;3.97;;;1.55;;
74170;SDS011;62526;50.948;6.590;2022-10-16T09:25:54;1.70;;;1.08;;
74170;SDS011;62526;50.948;6.590;2022-10-16T09:28:20;3.30;;;1.30;;
74170;SDS011;62526;50.948;6.590;2022-10-16T09:30:47;3.53;;;1.40;;
74170;SDS011;62526;50.948;6.590;2022-10-16T09:33:14;5.37;;;1.40;;
74170;SDS011;62526;50.948;6.590;2022-10-16T09:35:45;3.28;;;1.30;;
74170;SDS011;62526;50.948;6.590;2022-10-16T09:40:49;6.22;;;1.40;;
74170;SDS011;62526;50.948;6.590;2022-10-16T09:43:22;6.20;;;1.30;;
74170;SDS011;62526;50.948;6.590;2022-10-16T09:45:54;5.85;;;1.42;;
74170;SDS011;62526;50.948;6.590;2022-10-16T09:48:21;1.40;;;1.20;;
74170;SDS011;62526;50.948;6.590;2022-10-16T09:53:22;5.15;;;1.30;;
74170;SDS011;62526;50.948;6.590;2022-10-16T09:55:50;2.17;;;1.20;;
74170;SDS011;62526;50.948;6.590;2022-10-16T09:58:16;3.30;;;1.42;;
74170;SDS011;62526;50.948;6.590;2022-10-16T10:00:49;5.53;;;1.30;;
74170;SDS011;62526;50.948;6.590;2022-10-16T10:05:49;4.62;;;1.27;;
74170;SDS011;62526;50.948;6.590;2022-10-16T10:08:16;2.92;;;1.05;;
74170;SDS011;62526;50.948;6.590;2022-10-16T10:10:43;4.32;;;1.02;;
74170;SDS011;62526;50.948;6.590;2022-10-16T10:13:17;3.83;;;1.45;;
74170;SDS011;62526;50.948;6.590;2022-10-16T10:15:43;2.75;;;0.80;;
74170;SDS011;62526;50.948;6.590;2022-10-16T10:18:15;9.98;;;1.42;;
74170;SDS011;62526;50.948;6.590;2022-10-16T10:20:41;3.72;;;1.00;;
74170;SDS011;62526;50.948;6.590;2022-10-16T10:23:19;0.93;;;0.80;;
74170;SDS011;62526;50.948;6.590;2022-10-16T10:25:53;3.42;;;0.98;;
74170;SDS011;62526;50.948;6.590;2022-10-16T10:28:28;2.47;;;0.80;;
74170;SDS011;62526;50.948;6.590;2022-10-16T10:36:44;2.85;;;1.35;;
74170;SDS011;62526;50.948;6.590;2022-10-16T10:39:15;1.35;;;0.95;;
74170;SDS011;62526;50.948;6.590;2022-10-16T10:41:56;2.87;;;1.00;;
74170;SDS011;62526;50.948;6.590;2022-10-16T10:44:36;1.48;;;0.85;;
74170;SDS011;62526;50.948;6.590;2022-10-16T10:47:06;1.50;;;0.95;;
74170;SDS011;62526;50.948;6.590;2022-10-16T10:49:40;1.27;;;0.93;;
74170;SDS011;62526;50.948;6.590;2022-10-16T10:52:10;2.08;;;1.10;;
74170;SDS011;62526;50.948;6.590;2022-10-16T10:54:34;4.45;;;0.93;;
74170;SDS011;62526;50.948;6.590;2022-10-16T10:57:23;2.92;;;0.80;;
74170;SDS011;62526;50.948;6.590;2022-10-16T10:59:58;5.78;;;0.90;;
74170;SDS011;62526;50.948;6.590;2022-10-16T11:05:21;1.20;;;1.10;;
74170;SDS011;62526;50.948;6.590;2022-10-16T11:07:48;2.12;;;0.90;;
74170;SDS011;62526;50.948;6.590;2022-10-16T11:10:16;3.30;;;1.05;;
74170;SDS011;62526;50.948;6.590;2022-10-16T11:12:44;1.83;;;0.95;;
74170;SDS011;62526;50.948;6.590;2022-10-16T11:15:18;1.37;;;0.82;;
74170;SDS011;62526;50.948;6.590;2022-10-16T11:17:45;2.05;;;1.00;;
74170;SDS011;62526;50.948;6.590;2022-10-16T11:20:13;1.52;;;0.93;;
74170;SDS011;62526;50.948;6.590;2022-10-16T11:22:45;5.30;;;1.48;;
74170;SDS011;62526;50.948;6.590;2022-10-16T11:25:16;2.92;;;1.55;;
74170;SDS011;62526;50.948;6.590;2022-10-16T11:27:51;2.67;;;1.10;;
74170;SDS011;62526;50.948;6.590;2022-10-16T11:30:26;5.03;;;1.20;;
74170;SDS011;62526;50.948;6.590;2022-10-16T11:32:57;2.00;;;1.25;;
74170;SDS011;62526;50.948;6.590;2022-10-16T11:35:25;2.50;;;1.00;;
74170;SDS011;62526;50.948;6.590;2022-10-16T11:37:50;3.60;;;1.00;;
74170;SDS011;62526;50.948;6.590;2022-10-16T11:40:21;1.12;;;0.93;;
74170;SDS011;62526;50.948;6.590;2022-10-16T11:42:48;2.80;;;1.17;;
74170;SDS011;62526;50.948;6.590;2022-10-16T11:45:23;2.17;;;1.20;;
74170;SDS011;62526;50.948;6.590;2022-10-16T11:47:50;4.35;;;1.15;;
74170;SDS011;62526;50.948;6.590;2022-10-16T11:50:20;4.53;;;1.17;;
74170;SDS011;62526;50.948;6.590;2022-10-16T11:52:51;1.73;;;1.00;;
74170;SDS011;62526;50.948;6.590;2022-10-16T11:55:18;3.58;;;1.20;;
74170;SDS011;62526;50.948;6.590;2022-10-16T11:57:49;3.35;;;1.02;;
74170;SDS011;62526;50.948;6.590;2022-10-16T12:00:22;3.97;;;1.33;;
74170;SDS011;62526;50.948;6.590;2022-10-16T12:03:25;1.87;;;1.10;;
74170;SDS011;62526;50.948;6.590;2022-10-16T12:05:50;5.22;;;1.20;;
74170;SDS011;62526;50.948;6.590;2022-10-16T12:08:12;1.98;;;1.35;;
74170;SDS011;62526;50.948;6.590;2022-10-16T12:10:39;3.05;;;1.23;;
74170;SDS011;62526;50.948;6.590;2022-10-16T12:13:05;1.30;;;0.90;;
74170;SDS011;62526;50.948;6.590;2022-10-16T12:15:32;5.80;;;1.20;;
74170;SDS011;62526;50.948;6.590;2022-10-16T12:17:58;2.75;;;1.20;;
74170;SDS011;62526;50.948;6.590;2022-10-16T12:20:27;2.28;;;0.90;;
74170;SDS011;62526;50.948;6.590;2022-10-16T12:22:59;2.17;;;1.15;;
74170;SDS011;62526;50.948;6.590;2022-10-16T12:25:28;1.58;;;1.02;;
74170;SDS011;62526;50.948;6.590;2022-10-16T12:28:01;2.50;;;1.17;;
74170;SDS011;62526;50.948;6.590;2022-10-16T12:30:28;4.47;;;1.95;;
74170;SDS011;62526;50.948;6.590;2022-10-16T12:32:54;3.28;;;1.83;;
74170;SDS011;62526;50.948;6.590;2022-10-16T12:35:21;7.22;;;2.40;;
74170;SDS011;62526;50.948;6.590;2022-10-16T12:37:48;7.28;;;3.58;;
74170;SDS011;62526;50.948;6.590;2022-10-16T12:40:24;3.25;;;1.58;;
74170;SDS011;62526;50.948;6.590;2022-10-16T12:42:49;2.20;;;1.27;;
74170;SDS011;62526;50.948;6.590;2022-10-16T12:45:29;3.60;;;1.10;;
74170;SDS011;62526;50.948;6.590;2022-10-16T12:47:57;1.85;;;1.10;;
74170;SDS011;62526;50.948;6.590;2022-10-16T12:50:28;1.48;;;0.98;;
74170;SDS011;62526;50.948;6.590;2022-10-16T12:52:53;4.18;;;1.42;;
74170;SDS011;62526;50.948;6.590;2022-10-16T12:55:20;1.85;;;0.95;;
74170;SDS011;62526;50.948;6.590;2022-10-16T12:57:55;3.47;;;1.00;;
74170;SDS011;62526;50.948;6.590;2022-10-16T13:00:36;3.37;;;0.80;;
74170;SDS011;62526;50.948;6.590;2022-10-16T13:03:24;3.75;;;1.08;;
74170;SDS011;62526;50.948;6.590;2022-10-16T13:06:17;3.25;;;1.12;;
74170;SDS011;62526;50.948;6.590;2022-10-16T13:08:48;3.42;;;1.20;;
74170;SDS011;62526;50.948;6.590;2022-10-16T13:14:10;3.70;;;0.85;;
74170;SDS011;62526;50.948;6.590;2022-10-16T13:16:52;2.25;;;0.90;;
74170;SDS011;62526;50.948;6.590;2022-10-16T13:19:31;4.57;;;1.00;;
74170;SDS011;62526;50.948;6.590;2022-10-16T13:22:08;3.08;;;0.90;;
74170;SDS011;62526;50.948;6.590;2022-10-16T13:27:34;3.00;;;0.93;;
74170;SDS011;62526;50.948;6.590;2022-10-16T13:30:01;2.70;;;0.80;;
74170;SDS011;62526;50.948;6.590;2022-10-16T13:32:33;2.25;;;1.00;;
74170;SDS011;62526;50.948;6.590;2022-10-16T13:35:00;2.12;;;1.12;;
74170;SDS011;62526;50.948;6.590;2022-10-16T13:37:27;5.50;;;1.30;;
74170;SDS011;62526;50.948;6.590;2022-10-16T13:40:12;3.65;;;1.45;;
74170;SDS011;62526;50.948;6.590;2022-10-16T13:42:38;5.20;;;0.98;;
74170;SDS011;62526;50.948;6.590;2022-10-16T13:45:17;2.67;;;1.10;;
74170;SDS011;62526;50.948;6.590;2022-10-16T13:47:33;1.08;;;0.80;;
74170;SDS011;62526;50.948;6.590;2022-10-16T13:50:03;3.37;;;1.10;;
74170;SDS011;62526;50.948;6.590;2022-10-16T13:52:31;2.30;;;1.05;;
74170;SDS011;62526;50.948;6.590;2022-10-16T13:54:58;5.82;;;1.40;;
74170;SDS011;62526;50.948;6.590;2022-10-16T13:57:25;1.33;;;0.90;;
74170;SDS011;62526;50.948;6.590;2022-10-16T13:59:52;4.85;;;1.12;;
74170;SDS011;62526;50.948;6.590;2022-10-16T14:02:21;2.67;;;1.12;;
74170;SDS011;62526;50.948;6.590;2022-10-16T14:05:04;5.93;;;1.27;;
74170;SDS011;62526;50.948;6.590;2022-10-16T14:07:32;3.05;;;0.98;;
74170;SDS011;62526;50.948;6.590;2022-10-16T14:10:01;1.37;;;1.00;;
74170;SDS011;62526;50.948;6.590;2022-10-16T14:12:26;4.35;;;1.12;;
74170;SDS011;62526;50.948;6.590;2022-10-16T14:14:53;3.50;;;1.20;;
74170;SDS011;62526;50.948;6.590;2022-10-16T14:17:22;1.48;;;1.10;;
74170;SDS011;62526;50.948;6.590;2022-10-16T14:19:50;2.15;;;1.00;;
74170;SDS011;62526;50.948;6.590;2022-10-16T14:22:23;5.25;;;1.23;;
74170;SDS011;62526;50.948;6.590;2022-10-16T14:24:49;6.05;;;1.30;;
74170;SDS011;62526;50.948;6.590;2022-10-16T14:29:49;1.85;;;0.98;;
74170;SDS011;62526;50.948;6.590;2022-10-16T14:32:22;3.05;;;1.20;;
74170;SDS011;62526;50.948;6.590;2022-10-16T14:34:52;3.17;;;1.10;;
74170;SDS011;62526;50.948;6.590;2022-10-16T14:37:22;1.02;;;0.95;;
74170;SDS011;62526;50.948;6.590;2022-10-16T14:39:49;2.67;;;1.08;;
74170;SDS011;62526;50.948;6.590;2022-10-16T14:42:16;1.87;;;1.02;;
74170;SDS011;62526;50.948;6.590;2022-10-16T14:44:43;2.65;;;1.17;;
74170;SDS011;62526;50.948;6.590;2022-10-16T14:47:12;2.37;;;1.35;;
74170;SDS011;62526;50.948;6.590;2022-10-16T14:49:41;1.23;;;0.75;;
74170;SDS011;62526;50.948;6.590;2022-10-16T14:52:09;1.27;;;1.10;;
74170;SDS011;62526;50.948;6.590;2022-10-16T14:54:35;4.60;;;1.90;;
74170;SDS011;62526;50.948;6.590;2022-10-16T14:57:01;1.73;;;1.05;;
74170;SDS011;62526;50.948;6.590;2022-10-16T14:59:39;2.90;;;1.00;;
74170;SDS011;62526;50.948;6.590;2022-10-16T15:02:40;2.75;;;1.05;;
74170;SDS011;62526;50.948;6.590;2022-10-16T15:04:51;2.58;;;1.05;;
74170;SDS011;62526;50.948;6.590;2022-10-16T15:07:18;4.18;;;1.45;;
74170;SDS011;62526;50.948;6.590;2022-10-16T15:09:44;2.25;;;1.65;;
74170;SDS011;62526;50.948;6.590;2022-10-16T15:12:11;4.50;;;2.12;;
74170;SDS011;62526;50.948;6.590;2022-10-16T15:14:38;7.28;;;4.25;;
74170;SDS011;62526;50.948;6.590;2022-10-16T15:17:04;5.20;;;2.58;;
74170;SDS011;62526;50.948;6.590;2022-10-16T15:19:31;4.85;;;1.83;;
74170;SDS011;62526;50.948;6.590;2022-10-16T15:21:58;3.70;;;1.45;;
74170;SDS011;62526;50.948;6.590;2022-10-16T15:24:24;4.53;;;1.42;;
74170;SDS011;62526;50.948;6.590;2022-10-16T15:26:51;3.58;;;1.90;;
74170;SDS011;62526;50.948;6.590;2022-10-16T15:29:18;3.62;;;1.30;;
74170;SDS011;62526;50.948;6.590;2022-10-16T15:31:44;9.80;;;2.47;;